createdAt,value
2018-12-03T00:02:53.336Z,110.57
2018-12-03T00:05:51.563Z,111.75
2018-12-03T00:08:49.664Z,112.90
2018-12-03T00:11:46.496Z,109.35
2018-12-03T00:14:42.979Z,115.60
2018-12-03T00:17:39.236Z,113.92
2018-12-03T00:20:35.354Z,110.28
2018-12-03T00:23:31.286Z,114.52
2018-12-03T00:26:28.961Z,110.68
2018-12-03T00:29:25.692Z,112.85
2018-12-03T00:32:22.204Z,113.70
2018-12-03T00:35:18.843Z,117.28
2018-12-03T00:38:15.389Z,117.72
2018-12-03T00:41:11.544Z,114.70
2018-12-03T00:44:14.270Z,118.47
2018-12-03T00:47:10.306Z,113.97
2018-12-03T00:50:06.214Z,115.65
2018-12-03T00:53:02.709Z,113.28
2018-12-03T00:56:03.434Z,115.85
2018-12-03T00:58:59.628Z,116.82
2018-12-03T01:01:56.650Z,118.40
2018-12-03T01:04:53.218Z,115.08
2018-12-03T01:07:49.274Z,118.85
2018-12-03T01:10:45.449Z,116.67
2018-12-03T01:13:42.441Z,115.52
2018-12-03T01:16:38.933Z,118.72
2018-12-03T01:19:35.205Z,119.72
2018-12-03T01:22:31.205Z,116.93
2018-12-03T01:25:27.263Z,120.28
2018-12-03T01:28:23.290Z,119.42
2018-12-03T01:31:19.304Z,122.70
2018-12-03T01:34:19.133Z,119.15
2018-12-03T01:37:15.718Z,125.00
2018-12-03T01:40:13.939Z,121.97
2018-12-03T01:43:10.505Z,124.75
2018-12-03T01:46:06.531Z,126.15
2018-12-03T01:49:02.855Z,122.33
2018-12-03T01:51:59.459Z,126.38
2018-12-03T01:54:55.494Z,125.60
2018-12-03T01:57:51.898Z,120.82
2018-12-03T02:00:48.359Z,124.87
2018-12-03T02:03:44.560Z,121.33
2018-12-03T02:06:40.887Z,123.72
2018-12-03T02:09:36.866Z,119.77
2018-12-03T02:12:32.886Z,120.53
2018-12-03T02:15:29.577Z,120.17
2018-12-03T02:18:25.288Z,119.82
2018-12-03T02:21:21.383Z,119.75
2018-12-03T02:24:19.957Z,115.20
2018-12-03T02:27:16.134Z,116.47
2018-12-03T02:30:18.167Z,117.50
2018-12-03T02:33:14.604Z,116.08
2018-12-03T02:36:10.934Z,118.17
2018-12-03T02:39:08.886Z,115.62
2018-12-03T02:42:06.722Z,114.92
2018-12-03T02:45:04.558Z,116.35
2018-12-03T02:48:00.874Z,112.97
2018-12-03T02:50:56.799Z,116.57
2018-12-03T02:53:53.685Z,114.12
2018-12-03T02:56:49.887Z,109.42
2018-12-03T02:59:46.214Z,114.47
2018-12-03T03:02:45.642Z,116.08
2018-12-03T03:05:42.228Z,112.60
2018-12-03T03:08:38.306Z,116.75
2018-12-03T03:11:34.629Z,112.17
2018-12-03T03:14:30.960Z,112.12
2018-12-03T03:17:27.295Z,111.92
2018-12-03T03:20:25.153Z,113.68
2018-12-03T03:23:21.177Z,112.55
2018-12-03T03:26:17.845Z,110.40
2018-12-03T03:29:13.838Z,110.52
2018-12-03T03:32:10.787Z,108.78
2018-12-03T03:35:07.278Z,112.50
2018-12-03T03:38:04.073Z,107.27
2018-12-03T03:41:01.097Z,107.92
2018-12-03T03:43:59.550Z,115.35
2018-12-03T03:46:59.064Z,117.60
2018-12-03T03:49:55.383Z,115.40
2018-12-03T03:52:54.564Z,115.75
2018-12-03T03:56:04.404Z,112.47
2018-12-03T03:59:03.407Z,112.20
2018-12-03T04:02:01.163Z,113.80
2018-12-03T04:04:57.199Z,111.47
2018-12-03T04:07:53.710Z,111.15
2018-12-03T04:10:49.540Z,114.72
2018-12-03T04:13:45.922Z,111.50
2018-12-03T04:16:41.951Z,115.05
2018-12-03T04:19:38.001Z,109.27
2018-12-03T04:22:34.605Z,116.85
2018-12-03T04:25:30.952Z,111.42
2018-12-03T04:28:28.791Z,108.40
2018-12-03T04:31:25.561Z,108.55
2018-12-03T04:34:21.791Z,110.03
2018-12-03T04:37:20.759Z,108.00
2018-12-03T04:40:18.543Z,107.55
2018-12-03T04:43:18.089Z,103.90
2018-12-03T04:46:14.732Z,102.85
2018-12-03T04:49:12.801Z,101.97
2018-12-03T04:52:13.451Z,98.07
2018-12-03T04:55:12.277Z,101.62
2018-12-03T04:58:08.793Z,100.65
2018-12-03T05:01:07.711Z,97.72
2018-12-03T05:04:04.519Z,98.27
2018-12-03T05:07:01.446Z,95.50
2018-12-03T05:09:58.069Z,96.55
2018-12-03T05:12:58.491Z,92.97
2018-12-03T05:16:00.004Z,94.30
2018-12-03T05:18:57.285Z,93.70
2018-12-03T05:21:59.055Z,93.58
2018-12-03T05:24:55.641Z,92.40
2018-12-03T05:27:55.989Z,93.12
2018-12-03T05:30:55.027Z,91.12
2018-12-03T05:33:53.835Z,93.00
2018-12-03T05:36:50.952Z,90.45
2018-12-03T05:39:48.903Z,89.25
2018-12-03T05:42:47.024Z,89.75
2018-12-03T05:45:48.769Z,85.03
2018-12-03T05:48:45.497Z,85.72
2018-12-03T05:51:41.488Z,86.90
2018-12-03T05:54:37.910Z,87.55
2018-12-03T05:57:35.208Z,84.87
2018-12-03T06:00:33.740Z,87.50
2018-12-03T06:03:31.189Z,83.50
2018-12-03T06:06:27.419Z,84.20
2018-12-03T06:09:23.894Z,85.72
2018-12-03T06:12:20.861Z,84.65
2018-12-03T06:15:17.947Z,86.67
2018-12-03T06:18:14.545Z,84.75
2018-12-03T06:21:20.379Z,82.37
2018-12-03T06:24:17.619Z,84.90
2018-12-03T06:27:14.698Z,83.33
2018-12-03T06:30:19.803Z,81.67
2018-12-03T06:33:23.439Z,81.12
2018-12-03T06:36:20.592Z,83.50
2018-12-03T06:39:22.218Z,81.22
2018-12-03T06:42:20.007Z,81.97
2018-12-03T06:45:25.021Z,81.35
2018-12-03T06:48:26.729Z,80.77
2018-12-03T06:51:27.417Z,81.75
2018-12-03T06:54:28.253Z,76.40
2018-12-03T06:57:26.434Z,77.20
2018-12-03T07:00:34.306Z,75.22
2018-12-03T07:03:34.789Z,79.20
2018-12-03T07:06:32.543Z,80.70
2018-12-03T07:09:30.777Z,79.30
2018-12-03T07:12:28.774Z,78.52
2018-12-03T07:15:30.985Z,81.17
2018-12-03T07:18:33.855Z,80.47
2018-12-03T07:21:32.766Z,78.72
2018-12-03T07:24:33.322Z,78.78
2018-12-03T07:27:33.489Z,78.55
2018-12-03T07:30:31.355Z,78.80
2018-12-03T07:33:29.996Z,80.42
2018-12-03T07:36:27.968Z,76.65
2018-12-03T07:39:33.160Z,77.67
2018-12-03T07:42:32.783Z,77.32
2018-12-03T07:45:31.090Z,77.58
2018-12-03T07:48:29.745Z,73.07
2018-12-03T07:51:28.883Z,77.45
2018-12-03T07:54:28.143Z,74.30
2018-12-03T07:57:29.281Z,76.90
2018-12-03T08:00:31.429Z,78.45
2018-12-03T08:03:31.624Z,75.10
2018-12-03T08:06:29.178Z,75.15
2018-12-03T08:09:27.945Z,75.30
2018-12-03T08:12:25.951Z,74.72
2018-12-03T08:15:24.049Z,74.22
2018-12-03T08:18:23.897Z,75.92
2018-12-03T08:21:25.981Z,73.62
2018-12-03T08:24:28.631Z,75.52
2018-12-03T08:27:28.266Z,74.97
2018-12-03T08:30:27.712Z,71.70
2018-12-03T08:33:27.914Z,73.85
2018-12-03T08:36:26.348Z,74.32
2018-12-03T08:39:23.703Z,73.83
2018-12-03T08:42:21.354Z,75.67
2018-12-03T08:45:20.031Z,73.85
2018-12-03T08:48:18.537Z,73.28
2018-12-03T08:51:17.233Z,74.42
2018-12-03T08:54:15.568Z,73.83
2018-12-03T08:57:14.412Z,71.82
2018-12-03T09:00:17.024Z,74.25
2018-12-03T09:03:33.541Z,74.07
2018-12-03T09:06:33.085Z,71.17
2018-12-03T09:09:35.319Z,73.42
2018-12-03T09:12:31.337Z,70.67
2018-12-03T09:15:36.282Z,73.55
2018-12-03T09:18:39.334Z,71.05
2018-12-03T09:21:36.473Z,71.65
2018-12-03T09:24:40.678Z,68.10
2018-12-03T09:27:41.370Z,68.60
2018-12-03T09:30:42.032Z,70.00
2018-12-03T09:33:45.249Z,71.10
2018-12-03T09:36:45.547Z,68.07
2018-12-03T09:39:50.928Z,71.72
2018-12-03T09:43:01.199Z,73.12
2018-12-03T09:46:10.039Z,67.60
2018-12-03T09:49:14.830Z,67.47
2018-12-03T09:52:16.711Z,64.55
2018-12-03T09:55:18.943Z,64.58
2018-12-03T09:58:31.251Z,64.00
2018-12-03T10:01:33.020Z,60.52
2018-12-03T10:04:37.215Z,58.80
2018-12-03T10:07:37.323Z,62.20
2018-12-03T10:10:39.892Z,59.23
2018-12-03T10:13:39.726Z,58.65
2018-12-03T10:16:40.996Z,59.95
2018-12-03T10:19:39.090Z,58.30
2018-12-03T10:22:38.004Z,57.88
2018-12-03T10:25:36.614Z,55.08
2018-12-03T10:28:37.619Z,57.40
2018-12-03T10:31:36.179Z,57.15
2018-12-03T10:34:37.882Z,55.45
2018-12-03T10:37:39.911Z,57.85
2018-12-03T10:40:39.270Z,56.77
2018-12-03T10:43:39.997Z,56.28
2018-12-03T10:46:39.511Z,56.28
2018-12-03T10:49:40.098Z,54.80
2018-12-03T10:52:40.487Z,55.73
2018-12-03T10:55:42.485Z,53.63
2018-12-03T10:58:46.600Z,55.38
2018-12-03T11:02:16.198Z,52.78
2018-12-03T11:05:30.462Z,54.15
2018-12-03T11:08:30.702Z,52.73
2018-12-03T11:11:27.716Z,54.75
2018-12-03T11:14:26.398Z,53.48
2018-12-03T11:17:25.832Z,54.93
2018-12-03T11:20:24.698Z,53.75
2018-12-03T11:23:34.353Z,54.18
2018-12-03T11:26:30.308Z,53.60
2018-12-03T11:29:29.632Z,54.55
2018-12-03T11:32:33.087Z,56.05
2018-12-03T11:35:35.567Z,53.68
2018-12-03T11:39:28.591Z,53.20
2018-12-03T11:42:26.808Z,52.70
2018-12-03T11:45:25.031Z,53.20
2018-12-03T11:48:24.514Z,51.58
2018-12-03T11:51:21.116Z,53.38
2018-12-03T11:54:18.196Z,53.08
2018-12-03T11:57:17.734Z,52.93
2018-12-03T12:00:18.036Z,52.25
2018-12-03T12:03:14.137Z,53.45
2018-12-03T12:06:16.560Z,50.03
2018-12-03T12:09:21.006Z,54.60
2018-12-03T12:12:14.295Z,51.95
2018-12-03T12:15:15.152Z,53.58
2018-12-03T12:18:14.074Z,54.77
2018-12-03T12:21:12.785Z,55.85
2018-12-03T12:24:09.687Z,58.02
2018-12-03T12:27:05.939Z,62.27
2018-12-03T12:30:03.491Z,64.00
2018-12-03T12:32:59.703Z,63.92
2018-12-03T12:35:56.499Z,62.43
2018-12-03T12:38:52.243Z,65.12
2018-12-03T12:41:48.621Z,65.40
2018-12-03T12:44:44.720Z,65.85
2018-12-03T12:47:40.973Z,65.78
2018-12-03T12:50:37.559Z,66.37
2018-12-03T12:53:33.598Z,68.87
2018-12-03T12:56:29.153Z,71.55
2018-12-03T12:59:25.350Z,66.80
2018-12-03T13:02:22.196Z,77.90
2018-12-03T13:05:21.783Z,82.12
2018-12-03T13:08:18.320Z,97.75
2018-12-03T13:11:16.437Z,102.38
2018-12-03T13:14:20.049Z,105.10
2018-12-03T13:17:16.229Z,105.58
2018-12-03T13:20:19.652Z,125.62
2018-12-03T13:23:23.573Z,134.18
2018-12-03T13:26:23.899Z,134.85
2018-12-03T13:29:24.885Z,122.53
2018-12-03T13:32:21.617Z,118.17
2018-12-03T13:35:18.693Z,115.15
2018-12-03T13:38:14.431Z,111.77
2018-12-03T13:41:10.824Z,110.42
2018-12-03T13:44:07.091Z,116.00
2018-12-03T13:47:05.307Z,119.70
2018-12-03T13:50:01.373Z,119.97
2018-12-03T13:53:00.441Z,111.97
2018-12-03T13:55:54.879Z,119.53
2018-12-03T13:58:50.805Z,113.42
2018-12-03T14:01:47.934Z,116.90
2018-12-03T14:04:44.244Z,114.72
2018-12-03T14:07:46.544Z,112.32
2018-12-03T14:11:06.375Z,112.10
2018-12-03T14:14:31.084Z,110.52
2018-12-03T14:17:50.424Z,108.40
2018-12-03T14:20:49.293Z,110.57
2018-12-03T14:23:45.963Z,109.35
2018-12-03T14:26:41.614Z,108.12
2018-12-03T14:29:37.849Z,105.55
2018-12-03T14:32:36.381Z,108.05
2018-12-03T14:35:32.121Z,108.25
2018-12-03T14:38:28.721Z,106.63
2018-12-03T14:41:25.283Z,105.67
2018-12-03T14:44:21.952Z,103.10
2018-12-03T14:47:18.002Z,101.38
2018-12-03T14:50:15.567Z,104.23
2018-12-03T14:53:13.761Z,102.55
2018-12-03T14:56:10.339Z,101.92
2018-12-03T14:59:06.427Z,99.62
2018-12-03T15:02:03.724Z,100.33
2018-12-03T15:05:02.340Z,100.35
2018-12-03T15:07:58.899Z,100.47
2018-12-03T15:10:58.270Z,99.92
2018-12-03T15:13:54.353Z,102.02
2018-12-03T15:16:50.727Z,105.58
2018-12-03T15:19:47.604Z,102.82
2018-12-03T15:22:43.972Z,105.65
2018-12-03T15:25:41.089Z,107.95
2018-12-03T15:28:38.031Z,106.12
2018-12-03T15:31:37.157Z,107.60
2018-12-03T15:34:33.865Z,109.22
2018-12-03T15:37:30.663Z,104.75
2018-12-03T15:40:27.517Z,108.32
2018-12-03T15:43:24.044Z,109.52
2018-12-03T15:46:20.900Z,106.80
2018-12-03T15:49:17.901Z,105.35
2018-12-03T15:52:14.783Z,105.55
2018-12-03T15:55:12.160Z,102.95
2018-12-03T15:58:08.810Z,105.70
2018-12-03T16:01:05.112Z,103.38
2018-12-03T16:04:01.508Z,101.27
2018-12-03T16:06:57.977Z,103.47
2018-12-03T16:09:55.131Z,100.67
2018-12-03T16:12:52.572Z,103.02
2018-12-03T16:15:48.900Z,101.67
2018-12-03T16:18:47.628Z,100.87
2018-12-03T16:21:45.550Z,100.20
2018-12-03T16:24:42.329Z,98.03
2018-12-03T16:27:39.699Z,98.85
2018-12-03T16:30:38.083Z,98.80
2018-12-03T16:33:34.459Z,99.05
2018-12-03T16:36:31.948Z,96.28
2018-12-03T16:39:29.022Z,99.15
2018-12-03T16:42:25.453Z,98.42
2018-12-03T16:45:21.552Z,95.75
2018-12-03T16:48:18.484Z,98.00
2018-12-03T16:51:15.035Z,97.65
2018-12-03T16:54:11.355Z,91.97
2018-12-03T16:57:07.525Z,93.52
2018-12-03T17:00:05.845Z,94.55
2018-12-03T17:03:01.986Z,91.65
2018-12-03T17:05:59.009Z,95.57
2018-12-03T17:08:57.411Z,93.85
2018-12-03T17:11:54.377Z,94.17
2018-12-03T17:14:51.116Z,95.07
2018-12-03T17:17:47.885Z,96.00
2018-12-03T17:21:39.387Z,98.42
2018-12-03T17:24:39.014Z,96.17
2018-12-03T17:27:37.186Z,94.67
2018-12-03T17:30:33.533Z,96.75
2018-12-03T17:33:29.798Z,96.45
2018-12-03T17:36:26.294Z,95.05
2018-12-03T17:39:22.991Z,98.45
2018-12-03T17:42:26.562Z,95.45
2018-12-03T17:45:22.935Z,98.65
2018-12-03T17:48:19.003Z,98.70
2018-12-03T17:51:15.481Z,98.65
2018-12-03T17:54:11.935Z,98.78
2018-12-03T17:57:08.329Z,100.22
2018-12-03T18:00:04.595Z,99.50
2018-12-03T18:03:01.893Z,99.32
2018-12-03T18:05:58.038Z,98.17
2018-12-03T18:08:54.313Z,101.18
2018-12-03T18:11:50.631Z,97.80
2018-12-03T18:14:47.184Z,99.72
2018-12-03T18:17:43.182Z,100.33
2018-12-03T18:20:39.371Z,100.65
2018-12-03T18:23:35.584Z,101.90
2018-12-03T18:26:32.376Z,98.97
2018-12-03T18:29:28.691Z,101.75
2018-12-03T18:32:24.772Z,100.72
2018-12-03T18:35:20.913Z,102.20
2018-12-03T18:38:16.916Z,102.25
2018-12-03T18:41:12.998Z,98.15
2018-12-03T18:44:09.028Z,98.85
2018-12-03T18:47:05.792Z,100.35
2018-12-03T18:50:05.099Z,99.42
2018-12-03T18:53:01.472Z,96.85
2018-12-03T18:55:58.700Z,93.37
2018-12-03T18:59:04.541Z,95.67
2018-12-03T19:02:00.837Z,93.80
2018-12-03T19:04:57.234Z,96.80
2018-12-03T19:07:53.808Z,92.62
2018-12-03T19:10:49.971Z,91.75
2018-12-03T19:13:46.481Z,92.82
2018-12-03T19:16:42.761Z,93.00
2018-12-03T19:19:39.621Z,97.08
2018-12-03T19:22:35.831Z,95.28
2018-12-03T19:25:32.096Z,95.25
2018-12-03T19:28:28.570Z,94.90
2018-12-03T19:31:24.749Z,92.65
2018-12-03T19:34:22.137Z,91.32
2018-12-03T19:37:26.620Z,89.97
2018-12-03T19:40:22.705Z,92.82
2018-12-03T19:43:22.818Z,93.20
2018-12-03T19:46:19.678Z,92.50
2018-12-03T19:49:16.618Z,91.60
2018-12-03T19:52:13.271Z,90.55
2018-12-03T19:55:10.818Z,88.00
2018-12-03T19:58:18.985Z,87.02
2018-12-03T20:01:23.512Z,87.37
2018-12-03T20:04:45.040Z,87.75
2018-12-03T20:07:41.414Z,85.15
2018-12-03T20:10:37.562Z,84.80
2018-12-03T20:13:33.572Z,86.63
2018-12-03T20:16:29.927Z,86.32
2018-12-03T20:19:26.049Z,85.90
2018-12-03T20:22:21.976Z,80.25
2018-12-03T20:25:21.540Z,85.07
2018-12-03T20:28:21.865Z,84.83
2018-12-03T20:31:45.987Z,82.08
2018-12-03T20:38:15.921Z,84.22
2018-12-03T20:41:11.397Z,81.72
2018-12-03T20:44:02.795Z,79.37
2018-12-03T20:47:17.109Z,81.10
2018-12-03T20:50:19.503Z,78.75
2018-12-03T20:53:09.100Z,78.72
2018-12-03T20:55:57.500Z,79.47
2018-12-03T20:58:46.736Z,80.67
2018-12-03T21:01:35.215Z,79.32
2018-12-03T21:04:26.907Z,78.20
2018-12-03T21:07:14.454Z,76.62
2018-12-03T21:10:03.248Z,76.57
2018-12-03T21:12:51.577Z,77.95
2018-12-03T21:15:41.530Z,76.07
2018-12-03T21:18:29.289Z,75.95
2018-12-03T21:21:18.121Z,75.50
2018-12-03T21:24:06.178Z,76.22
2018-12-03T21:26:54.405Z,78.22
2018-12-03T21:29:43.337Z,75.80
2018-12-03T21:32:32.073Z,74.40
2018-12-03T21:35:20.373Z,74.12
2018-12-03T21:38:09.182Z,73.50
2018-12-03T21:40:57.482Z,76.72
2018-12-03T21:43:46.776Z,73.80
2018-12-03T21:46:34.822Z,77.03
2018-12-03T21:49:23.057Z,74.50
2018-12-03T21:52:11.812Z,75.47
2018-12-03T21:55:00.382Z,73.05
2018-12-03T21:57:49.107Z,69.67
2018-12-03T22:00:37.917Z,75.70
2018-12-03T22:03:26.667Z,73.70
2018-12-03T22:06:15.101Z,71.20
2018-12-03T22:09:04.069Z,71.10
2018-12-03T22:11:52.703Z,75.57
2018-12-03T22:14:40.806Z,74.20
2018-12-03T22:17:30.253Z,72.78
2018-12-03T22:20:18.873Z,75.22
2018-12-03T22:23:08.315Z,74.22
2018-12-03T22:25:56.781Z,74.65
2018-12-03T22:28:46.318Z,74.70
2018-12-03T22:31:34.645Z,74.32
2018-12-03T22:34:24.766Z,75.22
2018-12-03T22:37:13.451Z,75.60
2018-12-03T22:40:02.298Z,76.40
2018-12-03T22:42:53.266Z,73.42
2018-12-03T22:45:42.506Z,76.37
2018-12-03T22:48:31.644Z,76.40
2018-12-03T22:51:20.033Z,75.80
2018-12-03T22:54:08.349Z,75.52
2018-12-03T22:56:58.557Z,76.90
2018-12-03T22:59:46.460Z,76.47
2018-12-03T23:02:36.717Z,74.22
2018-12-03T23:05:25.891Z,76.17
2018-12-03T23:08:14.393Z,72.45
2018-12-03T23:11:03.849Z,72.67
2018-12-03T23:13:52.360Z,71.28
2018-12-03T23:16:40.619Z,74.60
2018-12-03T23:19:29.648Z,74.03
2018-12-03T23:22:17.298Z,76.87
2018-12-03T23:25:05.857Z,73.85
2018-12-03T23:27:54.395Z,73.65
2018-12-03T23:30:42.596Z,77.35
2018-12-03T23:33:31.546Z,79.87
2018-12-03T23:36:20.199Z,79.35
2018-12-03T23:39:10.831Z,80.17
2018-12-03T23:42:01.987Z,78.83
2018-12-03T23:44:51.000Z,78.10
2018-12-03T23:47:39.983Z,80.72
2018-12-03T23:50:29.291Z,82.70
2018-12-03T23:53:18.500Z,83.05
2018-12-03T23:56:07.144Z,82.05
2018-12-03T23:58:56.113Z,86.47
